createdAt,value
2017-12-29T00:01:05.963Z,6.43
2017-12-29T00:03:33.022Z,6.53
2017-12-29T00:06:00.026Z,5.63
2017-12-29T00:08:27.157Z,6.40
2017-12-29T00:10:54.514Z,7.20
2017-12-29T00:13:21.514Z,5.80
2017-12-29T00:15:47.801Z,6.33
2017-12-29T00:18:14.081Z,5.70
2017-12-29T00:20:40.434Z,5.93
2017-12-29T00:23:06.930Z,6.70
2017-12-29T00:25:33.187Z,5.97
2017-12-29T00:27:59.433Z,5.60
2017-12-29T00:30:25.747Z,6.10
2017-12-29T00:32:52.334Z,5.97
2017-12-29T00:35:19.442Z,5.33
2017-12-29T00:37:46.433Z,6.40
2017-12-29T00:40:14.255Z,5.70
2017-12-29T00:42:40.793Z,6.53
2017-12-29T00:45:08.338Z,5.20
2017-12-29T00:47:34.653Z,5.40
2017-12-29T00:50:00.963Z,4.77
2017-12-29T00:52:27.689Z,5.30
2017-12-29T00:54:54.628Z,5.10
2017-12-29T00:57:21.010Z,4.73
2017-12-29T00:59:48.478Z,5.47
2017-12-29T01:02:14.714Z,5.40
2017-12-29T01:04:40.968Z,4.60
2017-12-29T01:07:07.196Z,6.23
2017-12-29T01:09:34.184Z,5.43
2017-12-29T01:12:00.406Z,4.67
2017-12-29T01:14:27.444Z,5.20
2017-12-29T01:16:54.460Z,4.70
2017-12-29T01:19:21.713Z,4.07
2017-12-29T01:21:47.994Z,5.10
2017-12-29T01:24:14.984Z,3.97
2017-12-29T01:26:41.248Z,4.90
2017-12-29T01:29:07.701Z,3.63
2017-12-29T01:31:34.033Z,3.90
2017-12-29T01:34:00.622Z,4.10
2017-12-29T01:36:27.737Z,5.53
2017-12-29T01:38:55.255Z,3.83
2017-12-29T01:41:21.662Z,4.20
2017-12-29T01:43:48.816Z,3.90
2017-12-29T01:46:15.849Z,4.30
2017-12-29T01:48:42.096Z,3.20
2017-12-29T01:51:09.128Z,4.10
2017-12-29T01:53:35.394Z,3.90
2017-12-29T01:56:02.508Z,3.67
2017-12-29T01:58:30.234Z,4.20
2017-12-29T02:00:56.611Z,4.27
2017-12-29T02:03:22.858Z,3.70
2017-12-29T02:05:49.257Z,4.10
2017-12-29T02:08:15.977Z,3.93
2017-12-29T02:10:43.388Z,3.93
2017-12-29T02:13:09.678Z,4.40
2017-12-29T02:15:36.707Z,4.00
2017-12-29T02:18:03.008Z,4.70
2017-12-29T02:20:29.648Z,3.73
2017-12-29T02:22:56.236Z,4.07
2017-12-29T02:25:23.223Z,4.47
2017-12-29T02:27:50.630Z,4.40
2017-12-29T02:30:16.889Z,4.80
2017-12-29T02:32:43.920Z,4.73
2017-12-29T02:35:10.992Z,5.23
2017-12-29T02:37:38.032Z,5.33
2017-12-29T02:40:05.020Z,4.50
2017-12-29T02:42:32.009Z,4.00
2017-12-29T02:44:59.115Z,4.10
2017-12-29T02:47:26.599Z,4.17
2017-12-29T02:49:53.422Z,4.33
2017-12-29T02:52:20.721Z,4.53
2017-12-29T02:54:48.022Z,3.60
2017-12-29T02:57:14.971Z,4.33
2017-12-29T02:59:41.996Z,4.80
2017-12-29T03:02:08.954Z,3.97
2017-12-29T03:04:35.857Z,3.70
2017-12-29T03:07:02.586Z,4.20
2017-12-29T03:09:29.602Z,4.17
2017-12-29T03:11:56.071Z,3.47
2017-12-29T03:14:22.710Z,4.10
2017-12-29T03:16:49.166Z,3.63
2017-12-29T03:19:15.831Z,4.53
2017-12-29T03:21:42.105Z,4.07
2017-12-29T03:24:08.340Z,3.80
2017-12-29T03:26:35.381Z,3.70
2017-12-29T03:29:01.593Z,4.30
2017-12-29T03:31:27.824Z,3.43
2017-12-29T03:33:55.616Z,3.50
2017-12-29T03:36:21.882Z,3.60
2017-12-29T03:38:48.132Z,3.60
2017-12-29T03:41:14.414Z,2.97
2017-12-29T03:43:40.700Z,3.30
2017-12-29T03:46:11.194Z,3.73
2017-12-29T03:48:39.428Z,2.80
2017-12-29T03:51:05.783Z,3.47
2017-12-29T03:53:32.207Z,3.97
2017-12-29T03:55:58.499Z,2.90
2017-12-29T03:58:24.768Z,3.30
2017-12-29T04:00:51.740Z,3.87
2017-12-29T04:03:18.729Z,3.07
2017-12-29T04:05:44.990Z,3.23
2017-12-29T04:08:11.291Z,3.13
2017-12-29T04:10:37.763Z,2.70
2017-12-29T04:13:04.028Z,3.00
2017-12-29T04:15:30.293Z,2.77
2017-12-29T04:17:57.325Z,2.63
2017-12-29T04:20:23.570Z,3.03
2017-12-29T04:22:49.772Z,3.70
2017-12-29T04:25:17.096Z,3.47
2017-12-29T04:27:43.382Z,3.20
2017-12-29T04:30:10.404Z,3.40
2017-12-29T04:32:36.689Z,3.50
2017-12-29T04:35:03.694Z,3.13
2017-12-29T04:37:30.665Z,2.70
2017-12-29T04:39:57.645Z,2.90
2017-12-29T04:42:24.126Z,2.87
2017-12-29T04:44:50.764Z,3.50
2017-12-29T04:47:18.893Z,3.00
2017-12-29T04:49:45.860Z,2.87
2017-12-29T04:52:12.913Z,2.57
2017-12-29T04:54:39.931Z,3.13
2017-12-29T04:57:06.181Z,3.83
2017-12-29T04:59:33.611Z,3.80
2017-12-29T05:02:00.175Z,3.47
2017-12-29T05:04:27.198Z,3.70
2017-12-29T05:06:55.333Z,3.33
2017-12-29T05:09:21.650Z,3.43
2017-12-29T05:11:48.981Z,3.63
2017-12-29T05:14:15.219Z,3.57
2017-12-29T05:16:42.210Z,3.40
2017-12-29T05:19:09.700Z,3.53
2017-12-29T05:21:37.632Z,3.50
2017-12-29T05:24:05.761Z,3.80
2017-12-29T05:26:32.866Z,3.43
2017-12-29T05:28:59.079Z,3.53
2017-12-29T05:31:25.327Z,3.77
2017-12-29T05:33:51.554Z,3.40
2017-12-29T05:36:17.781Z,3.13
2017-12-29T05:38:44.062Z,3.93
2017-12-29T05:41:10.317Z,4.53
2017-12-29T05:43:36.569Z,3.60
2017-12-29T05:46:02.841Z,2.93
2017-12-29T05:48:29.883Z,3.80
2017-12-29T05:50:56.121Z,3.93
2017-12-29T05:53:22.414Z,3.60
2017-12-29T05:55:48.645Z,3.53
2017-12-29T05:58:14.864Z,3.93
2017-12-29T06:00:41.845Z,4.20
2017-12-29T06:03:08.070Z,4.00
2017-12-29T06:05:34.388Z,4.87
2017-12-29T06:08:00.678Z,4.20
2017-12-29T06:10:26.925Z,4.17
2017-12-29T06:12:53.152Z,4.27
2017-12-29T06:15:19.425Z,4.50
2017-12-29T06:17:46.488Z,3.90
2017-12-29T06:20:12.837Z,4.00
2017-12-29T06:22:39.065Z,5.03
2017-12-29T06:25:05.315Z,6.10
2017-12-29T06:27:31.555Z,6.27
2017-12-29T06:29:57.860Z,5.30
2017-12-29T06:32:24.085Z,4.63
2017-12-29T06:34:51.081Z,7.50
2017-12-29T06:37:17.330Z,9.80
2017-12-29T06:39:43.593Z,5.63
2017-12-29T06:42:09.849Z,6.10
2017-12-29T06:44:36.117Z,6.10
2017-12-29T06:47:02.395Z,5.50
2017-12-29T06:49:28.758Z,5.07
2017-12-29T06:51:55.020Z,6.13
2017-12-29T06:54:21.296Z,6.20
2017-12-29T06:56:47.585Z,5.63
2017-12-29T06:59:13.861Z,6.13
2017-12-29T07:01:40.859Z,6.50
2017-12-29T07:04:07.161Z,6.37
2017-12-29T07:06:34.183Z,6.40
2017-12-29T07:09:00.460Z,6.37
2017-12-29T07:11:26.716Z,6.47
2017-12-29T07:13:53.005Z,7.53
2017-12-29T07:16:19.234Z,5.90
2017-12-29T07:18:45.545Z,6.53
2017-12-29T07:21:11.810Z,6.03
2017-12-29T07:23:38.158Z,6.47
2017-12-29T07:26:04.397Z,8.33
2017-12-29T07:28:31.391Z,6.03
2017-12-29T07:30:57.683Z,6.47
2017-12-29T07:33:23.948Z,7.83
2017-12-29T07:35:50.240Z,6.77
2017-12-29T07:38:16.520Z,7.53
2017-12-29T07:40:42.786Z,8.67
2017-12-29T07:43:09.066Z,8.00
2017-12-29T07:45:35.386Z,8.57
2017-12-29T07:48:01.666Z,8.50
2017-12-29T07:50:28.977Z,8.80
2017-12-29T07:52:55.266Z,9.27
2017-12-29T07:55:21.514Z,10.80
2017-12-29T07:57:47.791Z,11.23
2017-12-29T08:00:14.092Z,10.77
2017-12-29T08:02:40.400Z,11.50
2017-12-29T08:05:07.791Z,11.77
2017-12-29T08:07:41.021Z,12.50
2017-12-29T08:10:09.162Z,12.63
2017-12-29T08:12:36.088Z,13.83
2017-12-29T08:15:05.033Z,14.43
2017-12-29T08:17:31.569Z,12.50
2017-12-29T08:19:58.152Z,12.30
2017-12-29T08:22:25.623Z,11.77
2017-12-29T08:24:52.945Z,13.17
2017-12-29T08:27:19.543Z,12.37
2017-12-29T08:29:46.593Z,13.60
2017-12-29T08:32:12.981Z,12.70
2017-12-29T08:34:39.423Z,12.65
2017-12-29T08:37:05.924Z,12.83
2017-12-29T08:39:32.635Z,13.17
2017-12-29T08:41:59.143Z,11.90
2017-12-29T08:44:26.308Z,11.80
2017-12-29T08:46:53.386Z,11.68
2017-12-29T08:49:19.669Z,10.33
2017-12-29T08:51:46.004Z,10.67
2017-12-29T08:54:12.418Z,11.27
2017-12-29T08:56:38.715Z,11.57
2017-12-29T08:59:04.994Z,9.73
2017-12-29T09:01:31.981Z,9.60
2017-12-29T09:03:58.468Z,10.85
2017-12-29T09:06:24.773Z,10.23
2017-12-29T09:08:51.045Z,10.80
2017-12-29T09:11:18.002Z,11.33
2017-12-29T09:13:45.048Z,12.97
2017-12-29T09:16:11.474Z,13.87
2017-12-29T09:18:37.795Z,11.87
2017-12-29T09:21:04.029Z,11.53
2017-12-29T09:23:30.379Z,10.97
2017-12-29T09:25:57.621Z,11.83
2017-12-29T09:28:24.786Z,11.30
2017-12-29T09:30:51.272Z,11.80
2017-12-29T09:33:17.585Z,11.33
2017-12-29T09:35:43.972Z,11.13
2017-12-29T09:38:10.558Z,11.03
2017-12-29T09:40:38.678Z,10.90
2017-12-29T09:43:06.389Z,13.90
2017-12-29T09:45:33.024Z,10.17
2017-12-29T09:48:00.038Z,10.57
2017-12-29T09:50:26.303Z,10.30
2017-12-29T09:52:53.811Z,11.63
2017-12-29T09:55:23.396Z,10.50
2017-12-29T09:57:50.454Z,11.83
2017-12-29T10:00:17.597Z,11.10
2017-12-29T10:02:43.939Z,11.93
2017-12-29T10:05:13.714Z,11.00
2017-12-29T10:07:40.728Z,11.23
2017-12-29T10:10:08.109Z,11.47
2017-12-29T10:12:35.738Z,11.20
2017-12-29T10:15:04.999Z,11.73
2017-12-29T10:17:35.484Z,11.77
2017-12-29T10:20:03.186Z,12.80
2017-12-29T10:22:30.876Z,11.30
2017-12-29T10:24:58.777Z,11.30
2017-12-29T10:27:25.914Z,13.13
2017-12-29T10:29:54.152Z,12.97
2017-12-29T10:32:21.028Z,10.73
2017-12-29T10:34:47.517Z,10.93
2017-12-29T10:37:15.249Z,10.73
2017-12-29T10:39:42.785Z,11.20
2017-12-29T10:42:09.188Z,11.60
2017-12-29T10:44:36.203Z,11.00
2017-12-29T10:47:02.412Z,11.93
2017-12-29T10:49:28.641Z,13.50
2017-12-29T10:51:54.883Z,11.47
2017-12-29T10:54:21.216Z,10.80
2017-12-29T10:56:47.469Z,12.57
2017-12-29T10:59:13.743Z,11.80
2017-12-29T11:01:39.975Z,12.10
2017-12-29T11:04:06.229Z,12.10
2017-12-29T11:06:32.583Z,13.10
2017-12-29T11:08:58.856Z,13.00
2017-12-29T11:11:25.109Z,13.10
2017-12-29T11:13:51.389Z,13.47
2017-12-29T11:16:17.720Z,12.67
2017-12-29T11:18:44.716Z,13.73
2017-12-29T11:21:11.012Z,14.10
2017-12-29T11:23:37.254Z,13.60
2017-12-29T11:26:03.486Z,13.10
2017-12-29T11:28:29.751Z,14.20
2017-12-29T11:30:55.984Z,13.10
2017-12-29T11:33:22.204Z,13.00
2017-12-29T11:35:48.463Z,13.47
2017-12-29T11:38:14.724Z,13.70
2017-12-29T11:40:40.969Z,13.93
2017-12-29T11:43:07.962Z,13.20
2017-12-29T11:45:34.212Z,13.80
2017-12-29T11:48:00.456Z,12.97
2017-12-29T11:50:26.772Z,12.87
2017-12-29T11:52:53.024Z,14.87
2017-12-29T11:55:19.383Z,15.17
2017-12-29T11:57:45.677Z,13.67
2017-12-29T12:00:11.948Z,14.87
2017-12-29T12:02:38.241Z,15.00
2017-12-29T12:05:04.506Z,16.20
2017-12-29T12:07:30.777Z,15.23
2017-12-29T12:09:58.715Z,15.37
2017-12-29T12:12:24.962Z,15.37
2017-12-29T12:14:51.193Z,16.20
2017-12-29T12:17:17.415Z,15.10
2017-12-29T12:19:44.438Z,15.30
2017-12-29T12:22:11.415Z,15.90
2017-12-29T12:24:37.666Z,16.47
2017-12-29T12:27:03.889Z,15.60
2017-12-29T12:29:30.130Z,14.63
2017-12-29T12:31:56.365Z,14.23
2017-12-29T12:34:22.672Z,13.30
2017-12-29T12:36:48.926Z,13.90
2017-12-29T12:39:15.152Z,13.73
2017-12-29T12:41:41.400Z,14.20
2017-12-29T12:44:07.629Z,14.47
2017-12-29T12:46:33.870Z,14.30
2017-12-29T12:49:00.198Z,14.23
2017-12-29T12:51:26.435Z,14.13
2017-12-29T12:53:52.692Z,12.27
2017-12-29T12:56:19.069Z,12.77
2017-12-29T12:58:46.070Z,12.77
2017-12-29T13:01:12.350Z,12.40
2017-12-29T13:03:39.348Z,13.60
2017-12-29T13:06:05.622Z,12.53
2017-12-29T13:08:31.868Z,12.83
2017-12-29T13:10:58.156Z,11.43
2017-12-29T13:13:24.435Z,12.40
2017-12-29T13:15:50.710Z,13.00
2017-12-29T13:18:17.743Z,12.40
2017-12-29T13:20:44.612Z,12.00
2017-12-29T13:23:10.868Z,12.07
2017-12-29T13:25:37.128Z,9.47
2017-12-29T13:28:04.104Z,9.50
2017-12-29T13:30:31.074Z,8.93
2017-12-29T13:32:58.056Z,9.77
2017-12-29T13:35:24.310Z,8.87
2017-12-29T13:37:50.670Z,7.07
2017-12-29T13:40:17.697Z,7.80
2017-12-29T13:42:43.939Z,8.43
2017-12-29T13:45:10.181Z,7.80
2017-12-29T13:47:36.426Z,6.57
2017-12-29T13:50:02.707Z,8.17
2017-12-29T13:52:28.933Z,7.10
2017-12-29T13:54:55.933Z,7.40
2017-12-29T13:57:22.253Z,10.40
2017-12-29T13:59:48.465Z,8.20
2017-12-29T14:02:15.421Z,7.63
2017-12-29T14:04:41.686Z,7.80
2017-12-29T14:07:07.967Z,7.53
2017-12-29T14:09:34.222Z,7.40
2017-12-29T14:12:00.464Z,8.27
2017-12-29T14:14:26.686Z,7.90
2017-12-29T14:16:52.945Z,7.97
2017-12-29T14:19:19.203Z,7.67
2017-12-29T14:21:45.412Z,7.60
2017-12-29T14:24:11.672Z,6.80
2017-12-29T14:26:37.921Z,7.80
2017-12-29T14:29:04.924Z,8.17
2017-12-29T14:31:31.194Z,7.20
2017-12-29T14:33:57.449Z,7.00
2017-12-29T14:36:23.700Z,7.60
2017-12-29T14:38:50.672Z,6.30
2017-12-29T14:41:17.079Z,5.87
2017-12-29T14:43:44.081Z,6.27
2017-12-29T14:46:10.340Z,5.90
2017-12-29T14:48:36.632Z,6.00
2017-12-29T14:51:03.667Z,6.50
2017-12-29T14:53:30.673Z,5.63
2017-12-29T14:55:56.934Z,6.00
2017-12-29T14:58:23.280Z,5.23
2017-12-29T15:00:49.555Z,5.40
2017-12-29T15:03:15.876Z,5.60
2017-12-29T15:05:42.544Z,5.73
2017-12-29T15:10:52.857Z,5.57
